sensor_id;sensor_type;location;lat;lon;timestamp;temperature;humidity
8882;DHT22;4477;48.736;9.176;2023-04-03T00:19:53;2.10;99.90
8882;DHT22;4477;48.736;9.176;2023-04-03T00:22:20;1.80;99.90
8882;DHT22;4477;48.736;9.176;2023-04-03T00:24:49;1.80;99.90
8882;DHT22;4477;48.736;9.176;2023-04-03T00:27:15;1.80;99.90
8882;DHT22;4477;48.736;9.176;2023-04-03T00:29:43;1.80;99.90
8882;DHT22;4477;48.736;9.176;2023-04-03T00:32:11;1.80;99.90
8882;DHT22;4477;48.736;9.176;2023-04-03T00:34:38;1.80;99.90
8882;DHT22;4477;48.736;9.176;2023-04-03T00:37:05;1.80;99.90
8882;DHT22;4477;48.736;9.176;2023-04-03T00:39:32;1.70;99.90
8882;DHT22;4477;48.736;9.176;2023-04-03T00:42:03;1.70;99.90
8882;DHT22;4477;48.736;9.176;2023-04-03T00:47:34;1.60;99.90
8882;DHT22;4477;48.736;9.176;2023-04-03T00:50:04;1.60;99.90
8882;DHT22;4477;48.736;9.176;2023-04-03T00:52:32;1.50;99.90
8882;DHT22;4477;48.736;9.176;2023-04-03T00:55:05;1.50;99.90
8882;DHT22;4477;48.736;9.176;2023-04-03T00:57:35;1.50;99.90
8882;DHT22;4477;48.736;9.176;2023-04-03T01:00:06;1.40;99.90
8882;DHT22;4477;48.736;9.176;2023-04-03T01:02:35;1.40;99.90
8882;DHT22;4477;48.736;9.176;2023-04-03T01:05:03;1.40;99.90
8882;DHT22;4477;48.736;9.176;2023-04-03T01:07:31;1.40;99.90
8882;DHT22;4477;48.736;9.176;2023-04-03T01:10:01;1.40;99.90
8882;DHT22;4477;48.736;9.176;2023-04-03T01:12:30;1.40;99.90
8882;DHT22;4477;48.736;9.176;2023-04-03T01:15:06;1.40;99.90
8882;DHT22;4477;48.736;9.176;2023-04-03T01:17:37;1.40;99.90
8882;DHT22;4477;48.736;9.176;2023-04-03T01:20:31;1.40;99.90
8882;DHT22;4477;48.736;9.176;2023-04-03T01:23:23;1.40;99.90
8882;DHT22;4477;48.736;9.176;2023-04-03T01:25:53;1.40;99.90
8882;DHT22;4477;48.736;9.176;2023-04-03T01:28:23;1.40;99.90
8882;DHT22;4477;48.736;9.176;2023-04-03T01:30:59;1.40;99.90
8882;DHT22;4477;48.736;9.176;2023-04-03T01:33:31;1.40;99.90
8882;DHT22;4477;48.736;9.176;2023-04-03T01:35:58;1.40;99.90
8882;DHT22;4477;48.736;9.176;2023-04-03T01:38:25;1.30;99.90
8882;DHT22;4477;48.736;9.176;2023-04-03T01:40:52;1.30;99.90
8882;DHT22;4477;48.736;9.176;2023-04-03T01:43:19;1.30;99.90
8882;DHT22;4477;48.736;9.176;2023-04-03T01:45:48;1.30;99.90
8882;DHT22;4477;48.736;9.176;2023-04-03T01:48:16;1.20;99.90
8882;DHT22;4477;48.736;9.176;2023-04-03T01:50:44;1.30;99.90
8882;DHT22;4477;48.736;9.176;2023-04-03T01:53:11;1.30;99.90
8882;DHT22;4477;48.736;9.176;2023-04-03T01:55:40;1.30;99.90
8882;DHT22;4477;48.736;9.176;2023-04-03T01:58:06;1.40;99.90
8882;DHT22;4477;48.736;9.176;2023-04-03T02:00:33;1.40;99.90
8882;DHT22;4477;48.736;9.176;2023-04-03T02:03:01;1.30;99.90
8882;DHT22;4477;48.736;9.176;2023-04-03T02:05:28;1.30;99.90
8882;DHT22;4477;48.736;9.176;2023-04-03T02:07:57;1.30;99.90
8882;DHT22;4477;48.736;9.176;2023-04-03T02:10:23;1.30;99.90
8882;DHT22;4477;48.736;9.176;2023-04-03T02:12:50;1.30;99.90
8882;DHT22;4477;48.736;9.176;2023-04-03T02:15:17;1.30;99.90
8882;DHT22;4477;48.736;9.176;2023-04-03T02:17:46;1.40;99.90
8882;DHT22;4477;48.736;9.176;2023-04-03T02:20:13;1.40;99.90
8882;DHT22;4477;48.736;9.176;2023-04-03T02:22:39;1.30;99.90
8882;DHT22;4477;48.736;9.176;2023-04-03T02:25:09;1.40;99.90
8882;DHT22;4477;48.736;9.176;2023-04-03T02:27:36;1.40;99.90
8882;DHT22;4477;48.736;9.176;2023-04-03T02:30:04;1.40;99.90
8882;DHT22;4477;48.736;9.176;2023-04-03T02:32:32;1.40;99.90
8882;DHT22;4477;48.736;9.176;2023-04-03T02:34:58;1.40;99.90
8882;DHT22;4477;48.736;9.176;2023-04-03T02:37:25;1.40;99.90
8882;DHT22;4477;48.736;9.176;2023-04-03T02:39:52;1.40;99.90
8882;DHT22;4477;48.736;9.176;2023-04-03T02:42:20;1.40;99.90
8882;DHT22;4477;48.736;9.176;2023-04-03T02:44:47;1.40;99.90
8882;DHT22;4477;48.736;9.176;2023-04-03T02:47:14;1.40;99.90
8882;DHT22;4477;48.736;9.176;2023-04-03T02:49:41;1.40;99.90
8882;DHT22;4477;48.736;9.176;2023-04-03T02:52:11;1.40;99.90
8882;DHT22;4477;48.736;9.176;2023-04-03T02:54:38;1.40;99.90
8882;DHT22;4477;48.736;9.176;2023-04-03T02:57:07;1.40;99.90
8882;DHT22;4477;48.736;9.176;2023-04-03T02:59:37;1.40;99.90
8882;DHT22;4477;48.736;9.176;2023-04-03T03:02:06;1.50;99.90
8882;DHT22;4477;48.736;9.176;2023-04-03T03:04:33;1.50;99.90
8882;DHT22;4477;48.736;9.176;2023-04-03T03:07:00;1.50;99.90
8882;DHT22;4477;48.736;9.176;2023-04-03T03:09:30;1.50;99.90
8882;DHT22;4477;48.736;9.176;2023-04-03T03:11:57;1.50;99.90
8882;DHT22;4477;48.736;9.176;2023-04-03T03:14:24;1.50;99.90
8882;DHT22;4477;48.736;9.176;2023-04-03T03:16:52;1.50;99.90
8882;DHT22;4477;48.736;9.176;2023-04-03T03:19:19;1.50;99.90
8882;DHT22;4477;48.736;9.176;2023-04-03T03:21:46;1.50;99.90
8882;DHT22;4477;48.736;9.176;2023-04-03T03:24:12;1.50;99.90
8882;DHT22;4477;48.736;9.176;2023-04-03T03:26:41;1.50;99.90
8882;DHT22;4477;48.736;9.176;2023-04-03T03:29:08;1.50;99.90
8882;DHT22;4477;48.736;9.176;2023-04-03T03:31:35;1.50;99.90
8882;DHT22;4477;48.736;9.176;2023-04-03T03:34:04;1.50;99.90
8882;DHT22;4477;48.736;9.176;2023-04-03T03:36:31;1.50;99.90
8882;DHT22;4477;48.736;9.176;2023-04-03T03:38:58;1.50;99.90
8882;DHT22;4477;48.736;9.176;2023-04-03T03:41:25;1.50;99.90
8882;DHT22;4477;48.736;9.176;2023-04-03T03:43:52;1.40;99.90
8882;DHT22;4477;48.736;9.176;2023-04-03T03:46:19;1.50;99.90
8882;DHT22;4477;48.736;9.176;2023-04-03T03:48:46;1.40;99.90
8882;DHT22;4477;48.736;9.176;2023-04-03T03:51:14;1.40;99.90
8882;DHT22;4477;48.736;9.176;2023-04-03T03:53:42;1.40;99.90
8882;DHT22;4477;48.736;9.176;2023-04-03T03:56:08;1.40;99.90
8882;DHT22;4477;48.736;9.176;2023-04-03T03:58:36;1.30;99.90
8882;DHT22;4477;48.736;9.176;2023-04-03T04:01:03;1.40;99.90
8882;DHT22;4477;48.736;9.176;2023-04-03T04:03:30;1.40;99.90
8882;DHT22;4477;48.736;9.176;2023-04-03T04:05:57;1.40;99.90
8882;DHT22;4477;48.736;9.176;2023-04-03T04:08:26;1.40;99.90
8882;DHT22;4477;48.736;9.176;2023-04-03T04:10:53;1.40;99.90
8882;DHT22;4477;48.736;9.176;2023-04-03T04:13:20;1.40;99.90
8882;DHT22;4477;48.736;9.176;2023-04-03T04:15:47;1.50;99.90
8882;DHT22;4477;48.736;9.176;2023-04-03T04:18:14;1.40;99.90
8882;DHT22;4477;48.736;9.176;2023-04-03T04:20:41;1.40;99.50
8882;DHT22;4477;48.736;9.176;2023-04-03T04:23:08;1.50;99.50
8882;DHT22;4477;48.736;9.176;2023-04-03T04:25:36;1.40;99.90
8882;DHT22;4477;48.736;9.176;2023-04-03T04:28:03;1.40;99.50
8882;DHT22;4477;48.736;9.176;2023-04-03T04:30:30;1.50;98.00
8882;DHT22;4477;48.736;9.176;2023-04-03T04:32:57;1.50;97.20
8882;DHT22;4477;48.736;9.176;2023-04-03T04:35:23;1.50;96.90
8882;DHT22;4477;48.736;9.176;2023-04-03T04:37:50;1.50;97.10
8882;DHT22;4477;48.736;9.176;2023-04-03T04:40:17;1.50;97.10
8882;DHT22;4477;48.736;9.176;2023-04-03T04:42:45;1.50;97.10
8882;DHT22;4477;48.736;9.176;2023-04-03T04:45:12;1.50;96.70
8882;DHT22;4477;48.736;9.176;2023-04-03T04:47:40;1.50;97.00
8882;DHT22;4477;48.736;9.176;2023-04-03T04:50:08;1.60;97.00
8882;DHT22;4477;48.736;9.176;2023-04-03T04:52:35;1.50;96.70
8882;DHT22;4477;48.736;9.176;2023-04-03T04:55:02;1.50;95.40
8882;DHT22;4477;48.736;9.176;2023-04-03T04:57:30;1.50;95.40
8882;DHT22;4477;48.736;9.176;2023-04-03T04:59:59;1.50;94.80
8882;DHT22;4477;48.736;9.176;2023-04-03T05:02:25;1.40;95.20
8882;DHT22;4477;48.736;9.176;2023-04-03T05:04:53;1.40;95.00
8882;DHT22;4477;48.736;9.176;2023-04-03T05:07:20;1.40;95.50
8882;DHT22;4477;48.736;9.176;2023-04-03T05:09:46;1.40;95.10
8882;DHT22;4477;48.736;9.176;2023-04-03T05:12:13;1.50;94.90
8882;DHT22;4477;48.736;9.176;2023-04-03T05:14:40;1.50;95.10
8882;DHT22;4477;48.736;9.176;2023-04-03T05:17:09;1.50;94.70
8882;DHT22;4477;48.736;9.176;2023-04-03T05:19:36;1.60;94.30
8882;DHT22;4477;48.736;9.176;2023-04-03T05:22:02;1.60;94.70
8882;DHT22;4477;48.736;9.176;2023-04-03T05:24:29;1.60;94.70
8882;DHT22;4477;48.736;9.176;2023-04-03T05:26:56;1.70;94.60
8882;DHT22;4477;48.736;9.176;2023-04-03T05:29:26;1.60;93.20
8882;DHT22;4477;48.736;9.176;2023-04-03T05:31:53;1.70;93.30
8882;DHT22;4477;48.736;9.176;2023-04-03T05:34:22;1.70;93.40
8882;DHT22;4477;48.736;9.176;2023-04-03T05:36:48;1.80;93.80
8882;DHT22;4477;48.736;9.176;2023-04-03T05:39:15;1.80;93.60
8882;DHT22;4477;48.736;9.176;2023-04-03T05:41:43;2.00;93.40
8882;DHT22;4477;48.736;9.176;2023-04-03T13:40:25;2.00;93.10
8882;DHT22;4477;48.736;9.176;2023-04-03T13:43:04;9.40;54.10
8882;DHT22;4477;48.736;9.176;2023-04-03T13:45:33;9.00;56.50
8882;DHT22;4477;48.736;9.176;2023-04-03T13:48:09;8.90;56.60
8882;DHT22;4477;48.736;9.176;2023-04-03T13:50:53;8.90;56.10
8882;DHT22;4477;48.736;9.176;2023-04-03T13:53:21;8.70;56.00
8882;DHT22;4477;48.736;9.176;2023-04-03T13:55:58;8.60;55.50
8882;DHT22;4477;48.736;9.176;2023-04-03T13:58:26;9.00;55.70
8882;DHT22;4477;48.736;9.176;2023-04-03T14:00:59;8.90;53.80
8882;DHT22;4477;48.736;9.176;2023-04-03T14:03:31;8.80;55.30
8882;DHT22;4477;48.736;9.176;2023-04-03T14:05:59;9.10;54.80
8882;DHT22;4477;48.736;9.176;2023-04-03T14:08:26;9.40;53.20
8882;DHT22;4477;48.736;9.176;2023-04-03T14:10:53;9.10;53.20
8882;DHT22;4477;48.736;9.176;2023-04-03T14:13:21;8.50;53.50
8882;DHT22;4477;48.736;9.176;2023-04-03T14:48:06;8.20;54.30
8882;DHT22;4477;48.736;9.176;2023-04-03T14:53:04;13.40;44.60
8882;DHT22;4477;48.736;9.176;2023-04-03T14:55:32;16.20;38.00
8882;DHT22;4477;48.736;9.176;2023-04-03T15:00:26;15.50;39.10
8882;DHT22;4477;48.736;9.176;2023-04-03T15:02:53;10.90;45.20
8882;DHT22;4477;48.736;9.176;2023-04-03T15:05:20;9.30;49.90
8882;DHT22;4477;48.736;9.176;2023-04-03T15:07:49;8.60;52.90
8882;DHT22;4477;48.736;9.176;2023-04-03T15:10:20;8.00;53.10
8882;DHT22;4477;48.736;9.176;2023-04-03T15:12:49;7.70;55.30
8882;DHT22;4477;48.736;9.176;2023-04-03T15:15:18;7.50;55.20
8882;DHT22;4477;48.736;9.176;2023-04-03T15:17:46;7.20;54.40
8882;DHT22;4477;48.736;9.176;2023-04-03T15:39:55;6.90;55.20
8882;DHT22;4477;48.736;9.176;2023-04-03T15:42:22;8.00;52.10
8882;DHT22;4477;48.736;9.176;2023-04-03T15:44:50;7.70;52.70
8882;DHT22;4477;48.736;9.176;2023-04-03T15:47:17;6.80;53.10
8882;DHT22;4477;48.736;9.176;2023-04-03T15:49:44;6.10;54.80
8882;DHT22;4477;48.736;9.176;2023-04-03T15:54:38;5.70;56.20
8882;DHT22;4477;48.736;9.176;2023-04-03T16:21:40;5.80;56.70
8882;DHT22;4477;48.736;9.176;2023-04-03T19:09:05;11.50;42.10
8882;DHT22;4477;48.736;9.176;2023-04-03T19:18:55;2.30;67.30
8882;DHT22;4477;48.736;9.176;2023-04-03T19:21:22;1.70;68.60
